Miyako, Japan

11:57 AM JST on August 05, 2015 (GMT +0900)
Hanamaki | | Change Station
CLOSE
Current Station
Airport
Location: Hanamaki,
Elevation: 302 ft
Nearby Weather Stations

Elev 302 ft 39.43 °N, 141.14 °E | Updated 57 minutes ago

Partly Cloudy
Partly Cloudy
93 °F
Feels Like 98 °F
N
6
Wind Variable Wind from Variable

Today
High -- | Low -- °F
--% Chance of Precip.
Yesterday
High -- | Low -- °F
Precip. -- in
4:34 AM 6:41 PM
Waning Gibbous, 72% visible
Pressure 29.80 in
Visibility 6.2 miles
Clouds Few 4000 ft
Heat Index 98 °F
Dew Point 68 °F
Humidity 44%
Rainfall 0.00 in
Snow Depth Not available.
UV 9 out of 12
Pollen Not available.
Air Quality Not available.
Flu Activity Not available.
METAR RJSI 050200Z VRB05KT 9999 FEW040 34/20 Q1009

More Conditions Fewer Conditions

Pressure 29.80 in
Visibility 6.2 miles
Clouds Few 4000 ft
Heat Index 98 °F
Dew Point 68 °F
Humidity 44%
Rainfall 0.00 in
Snow Depth Not available.
UV 9 out of 12
Pollen Not available.
Air Quality Not available.
Flu Activity Not available.
METAR RJSI 050200Z VRB05KT 9999 FEW040 34/20 Q1009

More Conditions Fewer Conditions

10-Day Weather Forecast

×

Almanac

Astronomy

Aug. 05, 2015 Rise Set
Actual Time
Civil Twilight
Nautical Twilight
Astronomical Twilight
Moon
Length of Visible Light
Length of Day
Tomorrow will be .
, % of the Moon is Illuminated

Today's Extremes

Country Highs Country Lows

Community

WunderPhotos

Upload Photos

1,844,089 photos uploaded!

WunderBlogs® & News

Nearby

Air Quality

  Air Quality AQ Index Pollutant
Not available.

Snow Depth

Station Depth Elevation

Earthquake Activity

City Distance Mag. Time & Date
Minimum magnitude displayed is 2.5.

Coastal Water Temperatures

Place Temperature

Stations

Nearby Weather Stations

Station Location Temp. Windchill Dew Point Humidity Wind Precip. Elev Updated Type